createdAt,value
2018-11-25T00:06:53.785Z,87.99
2018-11-25T00:17:11.800Z,87.93
2018-11-25T00:27:29.855Z,89.55
2018-11-25T00:37:48.867Z,89.85
2018-11-25T00:48:05.448Z,90.11
2018-11-25T00:58:23.524Z,89.88
2018-11-25T01:08:41.826Z,89.86
2018-11-25T01:18:59.919Z,90.66
2018-11-25T01:29:18.197Z,90.73
2018-11-25T01:39:36.193Z,90.41
2018-11-25T01:49:54.541Z,89.95
2018-11-25T02:00:22.346Z,89.88
2018-11-25T02:10:40.588Z,89.25
2018-11-25T02:20:59.000Z,89.10
2018-11-25T02:31:17.350Z,88.91
2018-11-25T02:41:35.480Z,88.28
2018-11-25T02:51:53.480Z,88.63
2018-11-25T03:02:10.966Z,88.86
2018-11-25T03:12:28.935Z,88.69
2018-11-25T03:22:47.505Z,89.17
2018-11-25T03:33:05.884Z,90.27
2018-11-25T03:43:28.823Z,89.48
2018-11-25T03:53:47.415Z,89.27
2018-11-25T04:04:06.152Z,90.29
2018-11-25T04:14:25.175Z,90.52
2018-11-25T04:24:43.579Z,90.66
2018-11-25T04:35:02.084Z,90.88
2018-11-25T04:45:21.629Z,91.70
2018-11-25T04:55:40.112Z,92.28
2018-11-25T05:05:58.671Z,92.45
2018-11-25T05:16:17.689Z,92.61
2018-11-25T05:26:35.678Z,92.68
2018-11-25T05:36:53.758Z,92.65
2018-11-25T05:47:11.864Z,92.65
2018-11-25T05:57:30.286Z,92.53
2018-11-25T06:07:48.762Z,92.35
2018-11-25T06:18:06.563Z,92.19
2018-11-25T06:28:25.846Z,92.11
2018-11-25T06:38:44.529Z,91.99
2018-11-25T06:49:03.207Z,92.25
2018-11-25T06:59:21.296Z,92.49
2018-11-25T07:09:39.402Z,92.63
2018-11-25T07:19:57.338Z,92.83
2018-11-25T07:30:22.277Z,92.97
2018-11-25T07:40:40.595Z,92.67
2018-11-25T07:50:58.745Z,92.40
2018-11-25T08:01:16.615Z,91.90
2018-11-25T08:11:34.623Z,91.29
2018-11-25T08:21:52.825Z,90.74
2018-11-25T08:32:10.925Z,90.54
2018-11-25T08:42:29.193Z,89.82
2018-11-25T08:52:51.391Z,89.32
2018-11-25T09:03:09.817Z,88.36
2018-11-25T09:13:27.862Z,88.29
2018-11-25T09:23:45.610Z,87.90
2018-11-25T09:34:03.875Z,87.57
2018-11-25T09:44:21.662Z,86.52
2018-11-25T09:54:39.657Z,86.15
2018-11-25T10:04:57.388Z,86.51
2018-11-25T10:15:16.883Z,86.23
2018-11-25T10:25:35.233Z,86.24
2018-11-25T10:35:53.179Z,86.17
2018-11-25T10:46:11.610Z,86.51
2018-11-25T10:56:29.333Z,86.55
2018-11-25T11:07:05.596Z,85.83
2018-11-25T11:17:24.225Z,84.89
2018-11-25T11:28:01.607Z,84.42
2018-11-25T11:38:22.534Z,84.97
2018-11-25T11:48:41.837Z,85.74
2018-11-25T11:59:06.648Z,85.76
2018-11-25T12:09:25.695Z,85.95
2018-11-25T12:19:44.452Z,85.96
2018-11-25T12:30:04.658Z,86.84
2018-11-25T12:40:26.285Z,86.56
2018-11-25T12:50:44.617Z,86.67
2018-11-25T13:01:03.070Z,86.80
2018-11-25T13:11:21.138Z,86.91
2018-11-25T13:21:39.078Z,88.03
2018-11-25T13:31:57.879Z,88.21
2018-11-25T13:42:17.605Z,88.49
2018-11-25T13:52:35.417Z,88.24
2018-11-25T14:02:53.747Z,88.48
2018-11-25T14:13:14.182Z,88.46
2018-11-25T14:23:33.087Z,88.28
2018-11-25T14:33:52.175Z,88.86
2018-11-25T14:44:10.952Z,88.81
2018-11-25T14:54:29.524Z,88.99
2018-11-25T15:04:50.397Z,88.43
2018-11-25T15:15:13.100Z,88.61
2018-11-25T15:25:33.118Z,88.75
2018-11-25T15:35:52.354Z,88.36
2018-11-25T15:46:10.604Z,88.62
2018-11-25T15:56:29.383Z,88.87
2018-11-25T16:06:48.161Z,88.90
2018-11-25T16:17:06.478Z,88.80
2018-11-25T16:27:24.756Z,89.09
2018-11-25T16:37:43.278Z,88.37
2018-11-25T16:48:01.687Z,88.49
2018-11-25T16:58:20.341Z,88.19
2018-11-25T17:08:40.164Z,88.45
2018-11-25T17:18:58.839Z,87.98
2018-11-25T17:29:17.198Z,87.29
2018-11-25T17:39:35.567Z,88.04
2018-11-25T17:49:53.672Z,88.59
2018-11-25T18:00:56.657Z,87.77
2018-11-25T18:11:14.806Z,87.65
2018-11-25T18:21:32.487Z,87.25
2018-11-25T18:31:50.663Z,86.60
2018-11-25T18:42:08.925Z,86.87
2018-11-25T18:52:26.694Z,87.17
2018-11-25T19:02:45.266Z,87.24
2018-11-25T19:13:04.323Z,88.08
2018-11-25T19:23:23.900Z,88.72
2018-11-25T19:33:42.595Z,88.78
2018-11-25T19:44:00.399Z,89.14
2018-11-25T19:54:19.047Z,88.87
2018-11-25T20:04:38.076Z,89.45
2018-11-25T20:14:56.022Z,89.14
2018-11-25T20:25:15.241Z,89.80
2018-11-25T20:35:33.968Z,89.41
2018-11-25T20:46:10.129Z,88.69
2018-11-25T20:56:28.491Z,88.40
2018-11-25T21:06:47.407Z,88.18
2018-11-25T21:17:05.501Z,88.09
2018-11-25T21:27:23.753Z,88.25
2018-11-25T22:36:30.588Z,87.87
2018-11-25T22:46:49.520Z,87.60
2018-11-25T22:57:10.035Z,87.84
2018-11-25T23:07:29.375Z,87.63
2018-11-25T23:17:48.576Z,87.53
2018-11-25T23:28:07.296Z,87.56
2018-11-25T23:38:27.238Z,88.23
2018-11-25T23:48:47.381Z,88.16
2018-11-25T23:59:07.091Z,88.36
